Time;durP1;ratioP1;P1;durP2;ratioP2;P2;SDS_P1;SDS_P2;PMS_P1;PMS_P2;Temp;Humidity;BMP_temperature;BMP_pressure;BME280_temperature;BME280_humidity;BME280_pressure;Samples;Min_cycle;Max_cycle;Signal;HPM_P1;HPM_P2
2023/09/02 00:00:39;;;;;;;9.55;6.18;;;17.30;99.90;;;;;;5079724;28;20226;-69
2023/09/02 00:03:29;;;;;;;9.85;6.07;;;17.30;99.90;;;;;;5091060;28;20272;-68
2023/09/02 00:06:18;;;;;;;10.27;5.82;;;17.30;99.90;;;;;;5076817;28;20215;-69
2023/09/02 00:09:07;;;;;;;11.13;5.70;;;17.30;99.90;;;;;;5094969;28;20646;-69
2023/09/02 00:11:56;;;;;;;12.10;6.38;;;17.30;99.90;;;;;;5093416;28;20238;-69
2023/09/02 00:14:45;;;;;;;11.38;6.32;;;17.30;99.90;;;;;;5078238;28;20238;-71
2023/09/02 00:17:36;;;;;;;11.50;6.78;;;17.20;99.90;;;;;;5070552;28;20238;-71
2023/09/02 00:20:26;;;;;;;12.02;6.35;;;17.10;99.90;;;;;;5095055;28;20223;-69
2023/09/02 00:23:14;;;;;;;11.85;6.13;;;17.10;99.90;;;;;;5082716;28;20784;-69
2023/09/02 00:26:04;;;;;;;8.43;6.50;;;17.10;99.90;;;;;;5083257;28;20258;-72
2023/09/02 00:28:53;;;;;;;7.95;6.05;;;17.10;99.90;;;;;;5084024;28;20297;-70
2023/09/02 00:31:42;;;;;;;9.02;6.00;;;17.20;99.90;;;;;;5090267;28;20289;-70
2023/09/02 00:34:31;;;;;;;9.90;6.00;;;17.10;99.90;;;;;;5077853;28;20223;-69
2023/09/02 00:37:23;;;;;;;11.45;6.63;;;17.10;99.90;;;;;;5097960;28;20212;-69
2023/09/02 00:40:14;;;;;;;9.40;6.55;;;17.10;99.90;;;;;;5101573;28;20227;-69
2023/09/02 00:43:05;;;;;;;11.55;7.28;;;17.10;99.90;;;;;;5082412;28;20334;-72
2023/09/02 00:45:54;;;;;;;10.45;6.25;;;17.00;99.90;;;;;;5083854;28;20219;-70
2023/09/02 00:48:43;;;;;;;8.93;6.20;;;17.10;99.90;;;;;;5088227;28;20302;-71
2023/09/02 00:51:32;;;;;;;11.80;6.75;;;17.10;99.90;;;;;;5056991;28;20263;-69
2023/09/02 00:54:23;;;;;;;12.15;6.47;;;17.00;99.90;;;;;;5078633;28;20246;-70
2023/09/02 00:57:12;;;;;;;9.90;6.75;;;17.00;99.90;;;;;;5085459;28;21918;-70
2023/09/02 01:00:04;;;;;;;10.48;6.82;;;17.00;99.90;;;;;;5102569;28;20666;-70
2023/09/02 01:02:53;;;;;;;10.63;6.65;;;17.00;99.90;;;;;;5102250;28;20218;-69
2023/09/02 01:05:42;;;;;;;8.20;6.60;;;17.10;99.90;;;;;;5072792;28;20227;-69
2023/09/02 01:08:32;;;;;;;11.45;6.22;;;17.10;99.90;;;;;;5065851;28;20725;-71
2023/09/02 01:11:23;;;;;;;12.15;7.22;;;17.10;99.90;;;;;;5078979;28;20230;-71
2023/09/02 01:14:14;;;;;;;11.00;6.88;;;17.00;99.90;;;;;;5077205;28;20246;-70
2023/09/02 01:17:03;;;;;;;10.38;6.72;;;16.90;99.90;;;;;;5084004;28;20220;-66
2023/09/02 01:19:56;;;;;;;11.27;6.65;;;17.00;99.90;;;;;;5097338;28;20231;-66
2023/09/02 01:23:05;;;;;;;10.65;7.30;;;17.00;99.90;;;;;;5083765;28;20262;-68
2023/09/02 01:26:12;;;;;;;9.50;7.18;;;16.90;99.90;;;;;;5082702;28;20226;-69
2023/09/02 01:29:06;;;;;;;10.23;7.40;;;17.00;99.90;;;;;;5106535;28;20375;-66
2023/09/02 01:31:55;;;;;;;11.10;7.13;;;16.90;99.90;;;;;;5086718;28;20219;-68
2023/09/02 01:34:47;;;;;;;13.73;7.10;;;17.00;99.90;;;;;;5088110;28;20237;-69
2023/09/02 01:37:42;;;;;;;11.15;7.15;;;16.90;99.90;;;;;;5078948;28;20230;-71
2023/09/02 01:40:32;;;;;;;14.88;7.60;;;16.80;99.90;;;;;;5091660;28;20279;-70
2023/09/02 01:43:23;;;;;;;9.13;6.82;;;16.80;99.90;;;;;;5105917;28;20457;-68
2023/09/02 01:46:14;;;;;;;10.60;7.32;;;16.90;99.90;;;;;;5089060;28;20234;-67
2023/09/02 01:49:04;;;;;;;13.25;7.03;;;17.00;99.90;;;;;;5098553;28;20332;-68
2023/09/02 01:51:53;;;;;;;12.75;7.22;;;17.00;99.90;;;;;;5085041;28;20223;-69
2023/09/02 01:54:42;;;;;;;9.65;6.95;;;17.00;99.90;;;;;;5063990;28;20215;-71
2023/09/02 01:57:34;;;;;;;10.73;7.28;;;16.90;99.90;;;;;;5084294;28;20223;-70
2023/09/02 02:00:22;;;;;;;9.27;6.90;;;16.90;99.90;;;;;;5080840;28;20215;-68
2023/09/02 02:03:20;;;;;;;8.18;7.10;;;16.80;99.90;;;;;;5093225;28;20235;-70
2023/09/02 02:06:13;;;;;;;12.82;7.05;;;16.90;99.90;;;;;;5095963;28;20747;-71
2023/09/02 02:09:05;;;;;;;11.55;6.65;;;16.80;99.90;;;;;;5080706;28;20235;-70
2023/09/02 02:11:56;;;;;;;9.65;7.15;;;16.80;99.90;;;;;;5083199;28;20751;-71
2023/09/02 02:14:46;;;;;;;11.35;7.40;;;16.80;99.90;;;;;;5093103;28;20279;-70
2023/09/02 02:17:35;;;;;;;10.00;7.28;;;16.70;99.90;;;;;;5087037;28;20219;-70
2023/09/02 02:20:30;;;;;;;10.38;7.10;;;16.60;99.90;;;;;;5065256;28;20257;-71
2023/09/02 02:23:20;;;;;;;13.68;7.40;;;16.60;99.90;;;;;;5074107;28;20243;-70
2023/09/02 02:26:09;;;;;;;10.00;7.63;;;16.60;99.90;;;;;;5069474;28;20216;-70
2023/09/02 02:28:58;;;;;;;11.00;7.55;;;16.60;99.90;;;;;;5076910;28;20223;-68
2023/09/02 02:31:46;;;;;;;12.40;7.53;;;16.70;99.90;;;;;;5062172;28;20228;-71
2023/09/02 02:34:35;;;;;;;11.95;7.30;;;16.70;99.90;;;;;;5090660;28;20219;-70
2023/09/02 02:37:26;;;;;;;8.55;7.13;;;16.70;99.90;;;;;;5069377;28;20851;-71
2023/09/02 02:40:16;;;;;;;12.98;7.63;;;16.60;99.90;;;;;;5069706;28;20239;-72
2023/09/02 02:43:05;;;;;;;12.48;8.00;;;16.60;99.90;;;;;;5067628;28;20220;-71
2023/09/02 02:45:54;;;;;;;11.45;7.43;;;16.60;99.90;;;;;;5081525;28;20677;-72
2023/09/02 02:48:43;;;;;;;13.85;7.22;;;16.60;99.90;;;;;;5072594;28;20722;-72
2023/09/02 02:51:32;;;;;;;10.98;7.82;;;16.60;99.90;;;;;;5079457;28;20222;-71
2023/09/02 02:54:22;;;;;;;10.25;7.45;;;16.60;99.90;;;;;;5098008;28;20787;-71
2023/09/02 02:57:12;;;;;;;12.30;8.02;;;16.60;99.90;;;;;;5073513;28;20355;-71
2023/09/02 03:00:02;;;;;;;13.52;7.80;;;16.60;99.90;;;;;;5082644;28;20230;-72
2023/09/02 03:02:52;;;;;;;12.70;8.30;;;16.60;99.90;;;;;;5076189;28;20234;-71
2023/09/02 03:05:42;;;;;;;11.73;7.88;;;16.60;99.90;;;;;;5079491;28;20349;-71
2023/09/02 03:08:32;;;;;;;10.88;8.07;;;16.50;99.90;;;;;;5072965;28;20215;-70
2023/09/02 03:11:23;;;;;;;8.85;7.72;;;16.50;99.90;;;;;;5080601;28;20273;-69
2023/09/02 03:14:11;;;;;;;13.35;9.20;;;16.50;99.90;;;;;;5076384;28;20235;-68
2023/09/02 03:17:01;;;;;;;11.13;8.00;;;16.40;99.90;;;;;;5080618;28;20267;-69
2023/09/02 03:19:50;;;;;;;14.38;7.95;;;16.40;99.90;;;;;;5083379;28;20235;-68
2023/09/02 03:22:41;;;;;;;14.43;8.23;;;16.40;99.90;;;;;;5094059;28;20243;-67
2023/09/02 03:25:31;;;;;;;12.68;7.85;;;16.30;99.90;;;;;;5080034;28;20764;-68
2023/09/02 03:28:21;;;;;;;11.63;7.60;;;16.40;99.90;;;;;;5095579;28;20230;-68
2023/09/02 03:31:12;;;;;;;13.48;8.13;;;16.40;99.90;;;;;;5079385;28;20214;-69
2023/09/02 03:34:04;;;;;;;10.80;7.97;;;16.40;99.90;;;;;;5080822;28;20693;-70
2023/09/02 03:36:52;;;;;;;13.73;7.75;;;16.30;99.90;;;;;;5077970;28;20808;-71
2023/09/02 03:39:41;;;;;;;12.90;8.50;;;16.30;99.90;;;;;;5080768;28;20294;-71
2023/09/02 03:42:31;;;;;;;11.80;7.53;;;16.20;99.90;;;;;;5057341;28;20571;-71
2023/09/02 03:45:21;;;;;;;11.93;7.47;;;16.20;99.90;;;;;;5076237;28;20831;-73
2023/09/02 03:48:10;;;;;;;11.15;7.57;;;16.20;99.90;;;;;;5094384;28;20211;-71
2023/09/02 03:51:01;;;;;;;14.05;7.45;;;16.20;99.90;;;;;;5079369;28;20226;-70
2023/09/02 03:53:51;;;;;;;13.55;7.80;;;16.20;99.90;;;;;;5084118;28;20222;-72
2023/09/02 03:56:41;;;;;;;10.63;7.43;;;16.20;99.90;;;;;;5083984;28;20720;-72
2023/09/02 03:59:30;;;;;;;10.68;7.45;;;16.10;99.90;;;;;;5080671;28;20585;-72
2023/09/02 04:02:20;;;;;;;12.90;8.35;;;16.10;99.90;;;;;;5090275;28;20222;-69
2023/09/02 04:05:10;;;;;;;8.93;7.35;;;16.20;99.90;;;;;;5082202;28;20226;-68
2023/09/02 04:07:59;;;;;;;12.43;7.50;;;16.10;99.90;;;;;;5063338;28;20215;-70
2023/09/02 04:10:52;;;;;;;13.07;7.88;;;16.20;99.90;;;;;;5075318;28;20226;-69
2023/09/02 04:13:41;;;;;;;17.67;7.90;;;16.20;99.90;;;;;;5075427;28;20227;-68
2023/09/02 04:16:33;;;;;;;12.88;8.15;;;16.10;99.90;;;;;;5068489;28;20289;-69
2023/09/02 04:19:24;;;;;;;11.90;8.07;;;16.20;99.90;;;;;;5105724;28;20470;-69
2023/09/02 04:22:12;;;;;;;16.83;8.75;;;16.10;99.90;;;;;;5087630;28;20223;-71
2023/09/02 04:25:01;;;;;;;13.30;8.38;;;16.10;99.90;;;;;;5102842;28;20218;-70
2023/09/02 04:27:50;;;;;;;9.77;8.00;;;16.20;99.90;;;;;;5083463;28;20298;-70
2023/09/02 04:30:39;;;;;;;11.05;8.48;;;16.10;99.90;;;;;;5088594;28;20242;-69
2023/09/02 04:33:28;;;;;;;14.55;8.57;;;16.10;99.90;;;;;;5082737;28;20723;-72
2023/09/02 04:36:19;;;;;;;13.15;8.23;;;16.10;99.90;;;;;;5077662;28;20223;-72
2023/09/02 04:39:08;;;;;;;14.40;8.10;;;16.20;99.90;;;;;;5085049;28;20230;-71
2023/09/02 04:41:58;;;;;;;11.80;8.88;;;16.30;99.90;;;;;;5057010;28;21127;-71
2023/09/02 04:44:47;;;;;;;14.07;8.55;;;16.30;99.90;;;;;;5071987;28;20254;-70
2023/09/02 04:47:37;;;;;;;15.23;9.43;;;16.40;99.90;;;;;;5094278;28;20580;-70
2023/09/02 04:50:26;;;;;;;13.60;8.70;;;16.40;99.90;;;;;;5069142;28;20292;-68
2023/09/02 04:53:18;;;;;;;19.42;11.77;;;16.40;99.90;;;;;;5084234;28;20301;-70
2023/09/02 04:56:08;;;;;;;15.90;10.15;;;16.50;99.90;;;;;;5078436;28;20991;-72
2023/09/02 04:58:58;;;;;;;14.75;9.50;;;16.60;99.90;;;;;;5076100;28;20681;-70
2023/09/02 05:01:47;;;;;;;14.88;8.68;;;16.60;99.90;;;;;;5078096;28;20215;-70
2023/09/02 05:04:36;;;;;;;11.68;8.73;;;16.60;99.90;;;;;;5075580;28;20243;-70
2023/09/02 05:07:25;;;;;;;13.85;10.07;;;16.70;99.90;;;;;;5076592;28;20306;-68
2023/09/02 05:10:17;;;;;;;14.25;10.50;;;16.80;99.90;;;;;;5084246;28;20218;-69
2023/09/02 05:13:07;;;;;;;12.77;9.75;;;16.90;99.90;;;;;;5093552;28;20214;-70
2023/09/02 05:15:56;;;;;;;12.25;9.05;;;17.00;99.90;;;;;;5080330;28;20673;-68
2023/09/02 05:18:45;;;;;;;11.45;9.00;;;17.10;99.90;;;;;;5078691;28;20219;-68
2023/09/02 05:21:34;;;;;;;16.13;9.40;;;17.00;99.90;;;;;;5082719;28;20275;-71
2023/09/02 05:24:23;;;;;;;12.55;9.45;;;17.10;99.90;;;;;;5085674;28;20234;-70
2023/09/02 05:27:14;;;;;;;13.18;9.52;;;17.30;99.90;;;;;;5080067;28;20225;-69
2023/09/02 05:30:04;;;;;;;14.40;9.88;;;17.30;99.90;;;;;;5084457;28;20595;-72
2023/09/02 05:32:53;;;;;;;12.93;10.05;;;17.40;99.90;;;;;;5077263;28;20257;-70
2023/09/02 05:35:42;;;;;;;13.18;9.30;;;17.50;99.90;;;;;;5063299;28;20960;-70
2023/09/02 05:38:31;;;;;;;11.48;9.63;;;17.60;99.90;;;;;;5066005;28;20237;-69
2023/09/02 05:41:20;;;;;;;13.23;8.77;;;18.10;99.90;;;;;;5094571;28;20219;-69
2023/09/02 05:44:11;;;;;;;14.40;8.95;;;18.20;99.90;;;;;;5095486;28;20252;-70
2023/09/02 05:46:59;;;;;;;13.52;9.80;;;18.10;99.90;;;;;;5096591;28;20230;-71
2023/09/02 05:49:48;;;;;;;16.05;9.40;;;18.10;99.90;;;;;;5079359;28;20238;-69
2023/09/02 05:52:37;;;;;;;12.80;8.65;;;18.00;99.90;;;;;;5079714;28;20625;-70
2023/09/02 05:55:26;;;;;;;11.02;8.20;;;18.10;99.90;;;;;;5098217;28;20238;-69
2023/09/02 05:58:14;;;;;;;14.60;8.57;;;18.10;99.90;;;;;;5072952;28;20227;-71
2023/09/02 06:01:06;;;;;;;13.32;8.52;;;18.10;99.90;;;;;;5092691;28;20223;-69
2023/09/02 06:03:56;;;;;;;12.07;8.55;;;18.20;99.90;;;;;;5083478;28;20883;-70
2023/09/02 06:06:45;;;;;;;13.77;8.90;;;18.30;99.90;;;;;;5075493;28;20692;-69
2023/09/02 06:09:34;;;;;;;13.05;8.45;;;18.30;99.90;;;;;;5074897;28;20705;-69
2023/09/02 06:12:23;;;;;;;11.98;8.63;;;18.40;99.90;;;;;;5079188;28;20229;-69
2023/09/02 06:15:12;;;;;;;12.07;9.00;;;18.40;99.90;;;;;;5090622;28;20223;-70
2023/09/02 06:18:03;;;;;;;13.65;8.23;;;18.50;99.90;;;;;;5079971;28;20238;-69
2023/09/02 06:20:51;;;;;;;11.60;8.38;;;18.70;99.90;;;;;;5073216;28;20222;-70
2023/09/02 06:23:43;;;;;;;11.27;8.00;;;18.90;99.90;;;;;;5082379;28;20309;-72
2023/09/02 06:26:32;;;;;;;8.85;7.00;;;19.30;99.90;;;;;;5095449;28;20969;-71
2023/09/02 06:29:21;;;;;;;12.70;7.40;;;19.30;99.90;;;;;;5092797;28;20215;-70
2023/09/02 06:32:11;;;;;;;11.43;6.95;;;19.20;99.90;;;;;;5094558;28;20235;-71
2023/09/02 06:35:02;;;;;;;9.45;6.25;;;19.30;99.90;;;;;;5078087;28;20220;-70
2023/09/02 06:37:51;;;;;;;9.70;6.05;;;19.30;99.90;;;;;;5091444;28;20231;-70
2023/09/02 06:40:39;;;;;;;7.88;5.72;;;19.40;99.90;;;;;;5096188;28;20235;-70
2023/09/02 06:43:29;;;;;;;9.07;6.40;;;19.40;99.90;;;;;;5068938;28;20227;-71
2023/09/02 06:46:20;;;;;;;10.40;6.25;;;19.50;99.90;;;;;;5078097;28;20215;-70
2023/09/02 06:49:09;;;;;;;9.80;5.68;;;19.50;99.90;;;;;;5072367;28;20210;-71
2023/09/02 06:52:00;;;;;;;9.57;5.40;;;19.50;99.90;;;;;;5072097;28;20219;-70
2023/09/02 06:54:49;;;;;;;8.48;5.22;;;19.70;99.90;;;;;;5077154;28;20231;-70
2023/09/02 06:57:43;;;;;;;6.68;5.05;;;19.80;99.90;;;;;;5069668;28;20229;-70
2023/09/02 07:00:36;;;;;;;10.07;5.68;;;20.00;99.90;;;;;;5094256;28;20625;-70
2023/09/02 07:03:25;;;;;;;8.30;5.63;;;20.20;99.90;;;;;;5078339;28;25572;-67
2023/09/02 07:06:15;;;;;;;8.70;5.22;;;20.30;99.90;;;;;;5079186;28;20226;-69
2023/09/02 07:09:05;;;;;;;7.57;4.70;;;20.60;99.90;;;;;;5074974;28;20850;-70
2023/09/02 07:11:55;;;;;;;9.40;5.00;;;20.80;99.90;;;;;;5075134;28;20709;-69
2023/09/02 07:14:44;;;;;;;11.98;5.20;;;21.00;99.90;;;;;;5068912;28;20222;-67
2023/09/02 07:17:32;;;;;;;8.18;4.95;;;21.10;99.90;;;;;;5079385;28;20226;-72
2023/09/02 07:20:21;;;;;;;7.55;5.00;;;21.10;99.90;;;;;;5080685;28;20227;-70
2023/09/02 07:23:10;;;;;;;7.72;4.43;;;21.20;99.90;;;;;;5074905;28;20615;-73
2023/09/02 07:26:04;;;;;;;5.45;4.00;;;21.20;99.90;;;;;;5096948;28;20226;-73
2023/09/02 07:28:52;;;;;;;6.82;3.45;;;21.40;99.90;;;;;;5077221;28;20212;-70
2023/09/02 07:31:41;;;;;;;5.43;3.72;;;21.50;99.90;;;;;;5076980;28;20231;-71
2023/09/02 07:34:34;;;;;;;7.93;4.05;;;21.60;99.90;;;;;;5090748;28;20223;-72
2023/09/02 07:37:23;;;;;;;6.72;3.83;;;21.60;99.90;;;;;;5081089;28;20214;-71
2023/09/02 07:40:12;;;;;;;5.40;3.53;;;21.60;99.90;;;;;;5099874;28;20234;-73
2023/09/02 07:43:03;;;;;;;7.93;4.30;;;21.70;99.90;;;;;;5084566;28;20235;-72
2023/09/02 07:45:53;;;;;;;5.78;3.13;;;21.70;99.90;;;;;;5082597;28;20233;-72
2023/09/02 07:48:43;;;;;;;7.68;3.25;;;21.90;99.90;;;;;;5056882;28;21045;-74
2023/09/02 07:51:31;;;;;;;4.80;3.08;;;22.10;99.90;;;;;;5084268;28;20226;-71
2023/09/02 07:54:21;;;;;;;5.13;2.67;;;22.30;99.90;;;;;;5089514;28;20214;-70
2023/09/02 07:57:09;;;;;;;6.32;2.83;;;22.30;99.90;;;;;;5101223;28;20850;-70
2023/09/02 08:00:01;;;;;;;4.88;2.90;;;22.60;99.90;;;;;;5087597;28;20245;-72
2023/09/02 08:02:59;;;;;;;7.18;3.30;;;22.90;99.90;;;;;;5100499;28;20218;-72
2023/09/02 08:05:48;;;;;;;7.30;3.33;;;23.00;99.90;;;;;;5084201;28;20241;-73
2023/09/02 08:08:37;;;;;;;5.10;3.00;;;23.30;99.90;;;;;;5074382;28;20226;-73
2023/09/02 08:11:26;;;;;;;5.43;3.13;;;23.50;99.90;;;;;;5067609;28;20675;-73
2023/09/02 08:14:15;;;;;;;5.75;3.47;;;23.70;99.90;;;;;;5083289;28;20702;-73
2023/09/02 08:17:06;;;;;;;4.47;3.35;;;24.10;99.90;;;;;;5074595;28;20677;-73
2023/09/02 08:19:55;;;;;;;6.35;3.03;;;24.40;99.90;;;;;;5096689;28;20215;-72
2023/09/02 08:22:44;;;;;;;8.57;3.00;;;24.70;99.90;;;;;;5080332;28;20396;-73
2023/09/02 08:25:33;;;;;;;4.40;3.15;;;24.80;99.90;;;;;;5094412;28;20215;-72
2023/09/02 08:28:22;;;;;;;4.80;3.10;;;25.00;99.90;;;;;;5082732;28;20761;-74
2023/09/02 08:31:11;;;;;;;9.15;3.08;;;25.30;99.90;;;;;;5084787;28;21110;-73
2023/09/02 08:34:02;;;;;;;5.53;2.92;;;25.50;99.50;;;;;;5081104;28;20228;-72
2023/09/02 08:36:51;;;;;;;6.63;3.40;;;26.00;71.50;;;;;;5058976;28;21228;-72
2023/09/02 08:39:40;;;;;;;5.57;3.00;;;25.90;23.40;;;;;;5099381;28;20227;-71
2023/09/02 08:42:29;;;;;;;5.35;2.80;;;26.10;6.30;;;;;;5079580;28;20283;-73
2023/09/02 08:45:22;;;;;;;9.15;2.83;;;26.60;25.10;;;;;;5097537;28;20679;-72
2023/09/02 08:48:17;;;;;;;5.50;3.10;;;27.00;1.00;;;;;;5079392;28;20216;-74
2023/09/02 08:51:09;;;;;;;4.15;2.58;;;27.30;1.00;;;;;;5097436;28;20788;-73
2023/09/02 08:54:00;;;;;;;3.75;2.70;;;27.60;1.00;;;;;;5083756;28;20215;-70
2023/09/02 08:56:49;;;;;;;4.30;2.50;;;27.80;1.00;;;;;;5096821;28;20737;-73
2023/09/02 08:59:38;;;;;;;4.25;2.80;;;27.90;1.00;;;;;;5062785;28;20246;-73
2023/09/02 09:02:29;;;;;;;4.53;3.40;;;27.80;1.00;;;;;;5053990;28;20826;-74
2023/09/02 09:05:18;;;;;;;6.25;2.88;;;28.10;1.00;;;;;;5075314;28;20711;-74
2023/09/02 09:08:10;;;;;;;6.35;4.03;;;28.20;1.00;;;;;;5070319;28;20354;-73
2023/09/02 09:10:59;;;;;;;8.30;3.30;;;28.40;99.90;;;;;;5074405;28;20246;-74
2023/09/02 09:13:50;;;;;;;5.85;2.90;;;28.40;99.90;;;;;;5079141;28;20244;-73
2023/09/02 09:16:43;;;;;;;5.90;3.33;;;28.10;99.90;;;;;;5087335;28;20582;-74
2023/09/02 09:19:34;;;;;;;5.15;3.05;;;27.50;1.00;;;;;;5083502;28;20230;-72
2023/09/02 09:22:23;;;;;;;3.70;2.90;;;26.50;1.00;;;;;;5099414;28;20377;-73
2023/09/02 09:25:14;;;;;;;3.75;2.83;;;25.80;1.00;;;;;;5084012;28;20231;-73
2023/09/02 09:28:11;;;;;;;5.32;3.05;;;25.40;20.90;;;;;;5084598;28;20219;-71
2023/09/02 09:30:59;;;;;;;3.97;3.05;;;24.90;59.70;;;;;;5102019;28;20638;-70
2023/09/02 09:33:54;;;;;;;4.15;3.30;;;24.70;55.70;;;;;;5085666;28;20309;-72
2023/09/02 09:36:44;;;;;;;5.03;3.00;;;24.50;97.00;;;;;;5095491;28;20227;-73
2023/09/02 09:39:40;;;;;;;4.93;3.00;;;24.50;88.80;;;;;;5095648;28;20725;-71
2023/09/02 09:42:35;;;;;;;7.43;2.90;;;24.40;99.90;;;;;;5076491;28;20301;-71
2023/09/02 09:45:24;;;;;;;6.78;3.63;;;24.30;98.60;;;;;;5099832;28;20219;-71
2023/09/02 09:48:13;;;;;;;5.40;3.10;;;24.00;95.70;;;;;;5085327;28;20362;-72
2023/09/02 09:51:20;;;;;;;5.35;3.08;;;24.10;99.40;;;;;;5088496;28;20219;-71
2023/09/02 09:54:09;;;;;;;4.65;3.05;;;24.10;90.60;;;;;;5098377;28;20214;-72
2023/09/02 09:56:58;;;;;;;6.43;3.00;;;23.90;96.40;;;;;;5080111;28;20277;-72
2023/09/02 09:59:52;;;;;;;5.38;3.60;;;23.60;99.90;;;;;;5081102;28;20225;-73
2023/09/02 10:02:50;;;;;;;7.90;3.58;;;23.70;99.90;;;;;;5094631;28;20234;-73
2023/09/02 10:05:39;;;;;;;5.65;3.30;;;24.90;96.00;;;;;;5081922;28;20226;-73
2023/09/02 10:08:28;;;;;;;5.63;3.10;;;25.50;76.00;;;;;;5081931;28;20234;-71
2023/09/02 10:11:21;;;;;;;6.30;2.78;;;25.90;85.30;;;;;;5079790;28;20219;-70
2023/09/02 10:14:11;;;;;;;4.65;3.05;;;25.20;76.50;;;;;;5101000;28;20299;-71
2023/09/02 10:17:03;;;;;;;6.35;3.00;;;24.50;72.00;;;;;;5099965;28;20215;-70
2023/09/02 10:19:53;;;;;;;5.03;2.97;;;24.30;91.30;;;;;;5099105;28;21076;-72
2023/09/02 10:22:45;;;;;;;4.50;3.00;;;24.30;93.20;;;;;;5089133;28;20268;-72
2023/09/02 10:25:41;;;;;;;4.55;2.92;;;24.20;97.40;;;;;;5088098;28;20234;-70
2023/09/02 10:28:37;;;;;;;4.80;2.97;;;24.10;99.90;;;;;;5074256;28;20729;-72
2023/09/02 10:31:32;;;;;;;7.18;3.30;;;23.90;92.20;;;;;;5073395;28;20254;-71
2023/09/02 10:34:33;;;;;;;3.78;2.92;;;23.80;73.80;;;;;;5087004;28;20219;-71
2023/09/02 10:37:26;;;;;;;7.60;3.00;;;23.90;26.30;;;;;;5060952;28;20257;-72
2023/09/02 10:40:21;;;;;;;4.90;3.00;;;23.80;62.20;;;;;;5090035;28;20321;-73
2023/09/02 10:43:13;;;;;;;4.03;2.80;;;23.90;67.70;;;;;;5078156;28;20631;-71
2023/09/02 10:46:04;;;;;;;3.65;2.72;;;24.00;72.20;;;;;;5090272;28;20229;-71
2023/09/02 10:48:53;;;;;;;4.35;2.75;;;23.80;56.10;;;;;;5082890;28;20377;-72
2023/09/02 10:51:44;;;;;;;4.90;2.97;;;23.80;59.30;;;;;;5095433;28;20215;-70
2023/09/02 10:55:00;;;;;;;5.25;2.90;;;23.90;77.00;;;;;;5095313;28;20305;-71
2023/09/02 10:57:51;;;;;;;4.60;2.85;;;24.20;42.10;;;;;;5079328;27;20221;-71
2023/09/02 11:00:47;;;;;;;4.20;2.75;;;24.20;51.40;;;;;;5078837;28;20227;-72
2023/09/02 11:03:46;;;;;;;5.63;2.80;;;24.30;53.90;;;;;;5078348;28;20216;-71
2023/09/02 11:06:35;;;;;;;3.33;2.88;;;24.10;45.40;;;;;;5073917;28;20231;-73
2023/09/02 11:09:53;;;;;;;5.57;3.00;;;24.00;62.20;;;;;;5085624;28;20219;-71
2023/09/02 11:13:08;;;;;;;4.43;3.30;;;24.10;66.30;;;;;;5096620;28;20233;-71
2023/09/02 11:16:12;;;;;;;5.38;2.90;;;24.20;60.00;;;;;;5079832;28;20223;-72
2023/09/02 11:19:08;;;;;;;4.65;2.78;;;24.20;59.50;;;;;;5063598;28;20230;-71
2023/09/02 11:21:59;;;;;;;4.50;2.58;;;24.10;40.70;;;;;;5065642;28;20231;-71
2023/09/02 11:24:49;;;;;;;4.50;3.05;;;23.90;40.30;;;;;;5070883;28;20239;-71
2023/09/02 11:27:47;;;;;;;4.40;2.75;;;23.90;26.30;;;;;;5093318;28;20227;-73
2023/09/02 11:30:37;;;;;;;3.53;2.80;;;23.80;69.10;;;;;;5095029;28;20212;-71
2023/09/02 11:33:27;;;;;;;3.83;2.53;;;24.00;1.00;;;;;;5069498;28;20794;-72
2023/09/02 11:36:19;;;;;;;7.35;2.70;;;24.10;53.00;;;;;;5071562;28;20230;-73
2023/09/02 11:39:08;;;;;;;7.70;2.60;;;24.10;70.10;;;;;;5078250;28;20211;-73
2023/09/02 11:42:07;;;;;;;5.78;2.50;;;24.10;53.40;;;;;;5072784;28;20216;-72
2023/09/02 11:45:01;;;;;;;4.75;2.60;;;23.90;50.70;;;;;;5066504;28;20219;-71
2023/09/02 11:47:52;;;;;;;4.47;2.63;;;23.90;38.20;;;;;;5074481;28;20245;-71
2023/09/02 11:50:45;;;;;;;5.10;2.40;;;23.90;45.30;;;;;;5092920;28;20593;-72
2023/09/02 11:53:34;;;;;;;5.10;2.45;;;23.90;28.90;;;;;;5093884;28;20226;-72
2023/09/02 11:56:24;;;;;;;5.07;2.60;;;23.80;24.80;;;;;;5100869;28;20363;-72
2023/09/02 11:59:20;;;;;;;3.88;2.55;;;23.70;14.20;;;;;;5078264;28;20231;-72
2023/09/02 12:02:15;;;;;;;5.45;2.42;;;23.70;24.50;;;;;;5096911;28;20686;-71
2023/09/02 12:05:06;;;;;;;8.30;6.20;;;23.70;50.30;;;;;;5086723;28;20220;-71
2023/09/02 12:07:55;;;;;;;3.42;2.42;;;23.60;37.40;;;;;;5080855;28;20223;-72
2023/09/02 12:10:46;;;;;;;2.60;2.10;;;23.60;24.00;;;;;;5092582;28;20241;-71
2023/09/02 12:13:35;;;;;;;3.75;2.08;;;23.60;36.00;;;;;;5081069;28;20636;-72
2023/09/02 12:16:24;;;;;;;3.83;2.35;;;23.60;36.10;;;;;;5097735;28;20273;-72
2023/09/02 12:19:14;;;;;;;7.10;2.75;;;23.80;13.30;;;;;;5079507;28;20379;-71
2023/09/02 12:22:04;;;;;;;5.68;2.55;;;23.90;25.60;;;;;;5097538;28;20215;-72
2023/09/02 12:24:53;;;;;;;4.72;2.55;;;24.10;13.90;;;;;;5075420;28;20223;-71
2023/09/02 12:27:42;;;;;;;2.95;2.22;;;24.20;14.90;;;;;;5042759;28;20287;-72
2023/09/02 12:30:32;;;;;;;2.85;2.10;;;23.90;29.10;;;;;;5090165;28;20749;-72
2023/09/02 12:33:21;;;;;;;5.03;2.65;;;24.00;14.20;;;;;;5090609;28;20646;-73
2023/09/02 12:36:11;;;;;;;10.77;2.63;;;24.00;9.90;;;;;;5096716;28;20226;-74
2023/09/02 12:39:00;;;;;;;5.57;2.80;;;24.10;1.00;;;;;;5086367;28;20726;-72
2023/09/02 12:41:49;;;;;;;7.03;3.40;;;24.00;12.20;;;;;;5096803;28;20241;-74
2023/09/02 12:44:48;;;;;;;6.28;2.70;;;24.00;3.30;;;;;;5078912;28;20238;-71
2023/09/02 12:47:41;;;;;;;3.83;2.40;;;24.10;5.00;;;;;;5075295;28;20231;-72
2023/09/02 12:50:32;;;;;;;6.30;2.67;;;24.10;7.70;;;;;;5098911;28;20223;-71
2023/09/02 12:53:24;;;;;;;5.18;2.60;;;24.00;21.30;;;;;;5092325;28;20223;-72
2023/09/02 12:56:13;;;;;;;4.90;3.10;;;23.90;1.00;;;;;;5085702;28;20380;-71
2023/09/02 12:59:03;;;;;;;4.65;2.83;;;23.90;42.60;;;;;;5088615;28;20223;-70
2023/09/02 13:01:52;;;;;;;6.57;2.70;;;23.80;12.20;;;;;;5078655;28;20219;-70
2023/09/02 13:04:41;;;;;;;4.68;2.38;;;23.70;33.80;;;;;;5084216;28;20242;-71
2023/09/02 13:07:32;;;;;;;4.60;2.40;;;23.50;13.10;;;;;;5073232;28;20224;-74
2023/09/02 13:10:24;;;;;;;3.67;2.40;;;23.40;25.20;;;;;;5068521;28;20212;-72
2023/09/02 13:13:13;;;;;;;7.95;2.63;;;23.40;18.40;;;;;;5060800;28;20212;-73
2023/09/02 13:16:05;;;;;;;4.40;2.60;;;23.40;58.90;;;;;;5078297;28;20663;-72
2023/09/02 13:18:54;;;;;;;3.67;2.55;;;23.40;49.20;;;;;;5078674;28;20223;-72
2023/09/02 13:21:43;;;;;;;3.95;2.83;;;23.50;42.00;;;;;;5075471;28;20707;-71
2023/09/02 13:24:32;;;;;;;3.75;2.35;;;23.50;47.70;;;;;;5078185;28;20591;-70
2023/09/02 13:27:25;;;;;;;4.68;2.63;;;23.70;44.30;;;;;;5078265;28;20254;-71
2023/09/02 13:30:15;;;;;;;7.57;2.60;;;23.50;37.10;;;;;;5080871;28;20215;-71
2023/09/02 13:33:06;;;;;;;3.85;2.33;;;23.40;41.70;;;;;;5075478;28;20343;-72
2023/09/02 13:35:58;;;;;;;4.28;2.33;;;23.40;75.50;;;;;;5081658;28;20356;-71
2023/09/02 13:38:47;;;;;;;5.60;2.17;;;23.40;78.60;;;;;;5075204;28;20707;-72
2023/09/02 13:41:36;;;;;;;3.35;2.55;;;23.40;57.00;;;;;;5071367;28;20238;-73
2023/09/02 13:44:26;;;;;;;4.15;2.55;;;23.60;31.90;;;;;;5084550;28;20219;-72
2023/09/02 13:47:18;;;;;;;4.88;2.60;;;23.70;46.00;;;;;;5072089;28;20528;-71
2023/09/02 13:50:11;;;;;;;4.28;3.22;;;23.60;67.70;;;;;;5075391;28;20590;-73
2023/09/02 13:53:00;;;;;;;3.80;2.90;;;23.60;41.80;;;;;;5093331;28;20267;-72
2023/09/02 13:55:50;;;;;;;6.47;3.00;;;23.70;35.40;;;;;;5087161;28;20307;-72
2023/09/02 13:58:40;;;;;;;3.95;2.50;;;23.70;44.20;;;;;;5095057;28;20222;-73
2023/09/02 14:01:31;;;;;;;3.95;2.22;;;23.70;62.90;;;;;;5102152;28;20227;-73
2023/09/02 14:04:21;;;;;;;4.20;2.20;;;23.70;21.80;;;;;;5100078;28;20223;-73
2023/09/02 14:07:11;;;;;;;4.57;2.38;;;23.60;23.70;;;;;;5095804;28;20226;-73
2023/09/02 14:09:59;;;;;;;3.67;2.28;;;23.60;57.20;;;;;;5087860;28;20222;-73
2023/09/02 14:12:49;;;;;;;3.63;2.35;;;23.50;38.80;;;;;;5086270;28;20296;-72
2023/09/02 14:15:38;;;;;;;5.05;2.35;;;23.40;46.50;;;;;;5082511;28;20363;-73
2023/09/02 14:18:29;;;;;;;3.03;2.35;;;23.30;57.00;;;;;;5081448;28;20288;-72
2023/09/02 14:21:18;;;;;;;4.35;2.50;;;23.30;45.80;;;;;;5075508;28;20220;-72
2023/09/02 14:24:07;;;;;;;2.75;2.20;;;23.20;23.40;;;;;;5070497;28;20277;-71
2023/09/02 14:27:10;;;;;;;6.57;2.25;;;23.20;34.70;;;;;;5087970;28;20214;-71
2023/09/02 14:29:59;;;;;;;5.18;2.40;;;23.00;59.40;;;;;;5078791;28;20215;-72
2023/09/02 14:32:47;;;;;;;4.30;2.50;;;22.90;60.30;;;;;;5070263;28;20247;-71
2023/09/02 14:35:38;;;;;;;5.22;2.58;;;23.00;79.70;;;;;;5085577;28;20233;-72
2023/09/02 14:38:26;;;;;;;3.25;2.33;;;23.00;55.90;;;;;;5076509;28;20246;-72
2023/09/02 14:41:15;;;;;;;4.47;2.58;;;22.90;89.20;;;;;;5074064;28;20602;-72
2023/09/02 14:44:04;;;;;;;5.78;2.83;;;22.80;94.30;;;;;;5063449;28;20235;-73